Time;durP1;ratioP1;P1;durP2;ratioP2;P2;SDS_P1;SDS_P2;PMS_P1;PMS_P2;Temp;Humidity;BMP_temperature;BMP_pressure;BME280_temperature;BME280_humidity;BME280_pressure;Samples;Min_cycle;Max_cycle;Signal;HPM_P1;HPM_P2
2023/01/01 00:00:10;;;;;;;14.50;7.03;;;14.50;99.90;;;;;;4854514;29;20139;-75
2023/01/01 00:02:36;;;;;;;15.52;7.22;;;14.50;99.90;;;;;;4853710;29;20044;-75
2023/01/01 00:05:03;;;;;;;17.55;6.50;;;14.50;99.90;;;;;;4836164;29;20034;-76
2023/01/01 00:07:29;;;;;;;15.10;7.07;;;14.50;99.90;;;;;;4851535;29;20407;-76
2023/01/01 00:12:39;;;;;;;14.90;6.03;;;14.40;99.90;;;;;;4853515;29;20049;-75
2023/01/01 00:15:05;;;;;;;13.88;6.90;;;14.50;99.90;;;;;;4853339;29;20055;-75
2023/01/01 00:17:31;;;;;;;22.90;6.82;;;14.40;99.90;;;;;;4837935;29;20080;-76
2023/01/01 00:19:56;;;;;;;14.65;6.80;;;14.30;99.90;;;;;;4856133;29;20096;-76
2023/01/01 00:22:22;;;;;;;21.55;10.73;;;14.30;99.90;;;;;;4838650;29;20137;-76
2023/01/01 00:24:48;;;;;;;17.77;6.80;;;14.30;99.90;;;;;;4844142;29;20174;-76
2023/01/01 00:27:13;;;;;;;15.65;6.97;;;14.30;99.90;;;;;;4850834;29;20049;-76
2023/01/01 00:29:39;;;;;;;17.90;8.15;;;14.20;99.90;;;;;;4854409;29;20041;-77
2023/01/01 00:32:05;;;;;;;16.25;7.32;;;14.10;99.90;;;;;;4837089;29;20068;-76
2023/01/01 00:34:31;;;;;;;15.15;7.65;;;14.10;99.90;;;;;;4852356;29;20478;-70
2023/01/01 00:36:56;;;;;;;12.43;7.57;;;14.00;99.90;;;;;;4835662;29;20052;-71
2023/01/01 00:39:22;;;;;;;14.45;7.65;;;13.90;99.90;;;;;;4852338;29;20045;-71
2023/01/01 00:41:48;;;;;;;17.63;8.60;;;13.90;99.90;;;;;;4853949;29;20078;-70
2023/01/01 00:44:15;;;;;;;19.83;8.23;;;13.90;99.90;;;;;;4857492;29;20081;-70
2023/01/01 00:46:41;;;;;;;18.50;8.30;;;13.90;99.90;;;;;;4857221;29;20051;-70
2023/01/01 00:49:06;;;;;;;19.15;8.73;;;13.90;99.90;;;;;;4858387;29;20045;-71
2023/01/01 00:51:32;;;;;;;18.70;8.90;;;13.90;99.90;;;;;;4857358;29;20486;-70
2023/01/01 00:53:58;;;;;;;16.65;9.35;;;13.90;99.90;;;;;;4827771;29;20061;-71
2023/01/01 00:56:23;;;;;;;18.35;9.27;;;13.90;99.90;;;;;;4854814;29;20354;-71
2023/01/01 00:58:49;;;;;;;15.30;9.05;;;13.90;99.90;;;;;;4856928;29;20111;-71
2023/01/01 01:01:15;;;;;;;18.20;10.68;;;13.90;99.90;;;;;;4857051;29;20474;-71
2023/01/01 01:03:41;;;;;;;;;;;13.90;99.90;;;;;;4842428;29;20390;-71
2023/01/01 01:06:09;;;;;;;20.88;11.02;;;13.90;99.90;;;;;;4857054;29;19920;-71
2023/01/01 01:08:37;;;;;;;22.55;10.80;;;13.80;99.90;;;;;;4856648;29;20105;-71
2023/01/01 01:11:09;;;;;;;20.00;11.95;;;13.90;99.90;;;;;;4856725;29;20119;-71
2023/01/01 01:13:36;;;;;;;24.70;13.93;;;13.90;99.90;;;;;;4845518;29;20566;-71
2023/01/01 01:16:08;;;;;;;27.00;14.60;;;13.90;99.90;;;;;;4841202;29;20057;-70
2023/01/01 01:18:35;;;;;;;22.95;14.68;;;13.90;99.90;;;;;;4857585;29;20041;-71
2023/01/01 01:21:01;;;;;;;38.55;24.10;;;13.80;99.90;;;;;;4857493;29;20045;-71
2023/01/01 01:23:26;;;;;;;29.65;17.35;;;13.70;99.90;;;;;;4840953;29;20116;-70
2023/01/01 01:25:52;;;;;;;25.35;17.00;;;13.60;99.90;;;;;;4856131;29;20057;-70
2023/01/01 01:28:18;;;;;;;27.63;16.77;;;13.60;99.90;;;;;;4823647;29;20042;-70
2023/01/01 01:30:44;;;;;;;26.73;16.27;;;13.50;99.90;;;;;;4834268;29;20062;-70
2023/01/01 01:33:09;;;;;;;28.73;18.23;;;13.40;99.90;;;;;;4856644;29;20089;-71
2023/01/01 01:35:35;;;;;;;26.83;17.08;;;13.40;99.90;;;;;;4841366;29;20168;-71
2023/01/01 01:38:01;;;;;;;34.90;18.20;;;13.40;99.90;;;;;;4838268;29;20074;-71
2023/01/01 01:40:27;;;;;;;26.98;17.95;;;13.40;99.90;;;;;;4838369;29;20057;-71
2023/01/01 01:42:53;;;;;;;25.38;18.13;;;13.40;99.90;;;;;;4856422;29;20045;-71
2023/01/01 01:45:18;;;;;;;31.00;19.42;;;13.30;99.90;;;;;;4858300;29;20129;-71
2023/01/01 01:47:57;;;;;;;32.85;20.88;;;13.30;99.90;;;;;;4836899;29;20046;-71
2023/01/01 01:50:30;;;;;;;28.92;18.85;;;13.30;99.90;;;;;;4838452;29;20107;-71
2023/01/01 01:53:11;;;;;;;30.50;19.38;;;13.20;99.90;;;;;;4852123;29;20414;-71
2023/01/01 01:55:42;;;;;;;29.60;20.73;;;13.20;99.90;;;;;;4841880;29;20054;-72
2023/01/01 01:58:12;;;;;;;34.35;22.52;;;13.20;99.90;;;;;;4857790;29;20116;-71
2023/01/01 02:00:38;;;;;;;31.88;20.90;;;13.20;99.90;;;;;;4855326;29;20133;-71
2023/01/01 02:03:10;;;;;;;33.08;21.08;;;13.10;99.90;;;;;;4856350;29;20097;-71
2023/01/01 02:05:37;;;;;;;32.50;22.40;;;13.00;99.90;;;;;;4855936;29;20493;-71
2023/01/01 02:08:04;;;;;;;36.58;23.02;;;13.10;99.90;;;;;;4854764;29;20046;-71
2023/01/01 02:10:30;;;;;;;34.72;24.63;;;13.10;99.90;;;;;;4856258;29;20084;-71
2023/01/01 02:12:55;;;;;;;35.90;24.02;;;13.10;99.90;;;;;;4854628;29;20091;-71
2023/01/01 02:15:27;;;;;;;39.03;24.40;;;13.10;99.90;;;;;;4855265;29;20053;-71
2023/01/01 02:18:15;;;;;;;46.20;25.98;;;13.20;99.90;;;;;;4855740;29;20045;-71
2023/01/01 02:20:50;;;;;;;34.90;25.60;;;13.20;99.90;;;;;;4840695;29;20136;-71
2023/01/01 02:23:19;;;;;;;34.92;25.25;;;13.10;99.90;;;;;;4854877;29;20487;-72
2023/01/01 02:25:48;;;;;;;38.38;25.05;;;13.10;99.90;;;;;;4841418;29;20088;-71
2023/01/01 02:28:34;;;;;;;36.25;25.13;;;13.20;99.90;;;;;;4855129;29;20050;-71
2023/01/01 02:31:01;;;;;;;38.97;23.88;;;13.10;99.90;;;;;;4838098;29;20101;-70
2023/01/01 02:33:28;;;;;;;36.38;23.45;;;13.20;99.90;;;;;;4840877;29;20057;-71
2023/01/01 02:36:03;;;;;;;30.13;22.05;;;13.20;99.90;;;;;;4856967;29;20053;-71
2023/01/01 02:38:40;;;;;;;34.80;22.10;;;13.20;99.90;;;;;;4854342;29;20054;-71
2023/01/01 02:41:11;;;;;;;30.45;21.15;;;13.20;99.90;;;;;;4856136;29;20061;-71
2023/01/01 02:43:37;;;;;;;35.08;22.98;;;13.20;99.90;;;;;;4855691;29;20057;-70
2023/01/01 02:46:08;;;;;;;32.67;21.35;;;13.10;99.90;;;;;;4855998;29;20458;-71
2023/01/01 02:48:38;;;;;;;30.67;19.65;;;13.10;99.90;;;;;;4859223;29;20076;-70
2023/01/01 02:51:15;;;;;;;27.52;18.67;;;13.10;99.90;;;;;;4858466;29;20073;-70
2023/01/01 02:53:45;;;;;;;;;;;13.10;99.90;;;;;;4856761;29;20057;-71
2023/01/01 02:56:25;;;;;;;31.17;18.98;;;13.10;99.90;;;;;;4860157;29;20457;-71
2023/01/01 03:02:29;;;;;;;26.40;16.00;;;13.10;99.90;;;;;;4858720;29;20064;-72
2023/01/01 03:05:01;;;;;;;27.73;18.10;;;13.10;99.90;;;;;;4840363;29;20103;-72
2023/01/01 03:07:45;;;;;;;28.70;17.45;;;13.00;99.90;;;;;;4859217;29;20053;-72
2023/01/01 03:10:25;;;;;;;22.70;15.07;;;13.00;99.90;;;;;;4855600;29;20051;-72
2023/01/01 03:13:04;;;;;;;26.63;16.33;;;13.00;99.90;;;;;;4842800;29;20110;-71
2023/01/01 03:15:36;;;;;;;23.23;15.40;;;13.00;99.90;;;;;;4858418;29;20057;-71
2023/01/01 03:18:04;;;;;;;24.17;16.33;;;13.00;99.90;;;;;;4857649;29;20045;-71
2023/01/01 03:20:35;;;;;;;23.10;13.90;;;13.00;99.90;;;;;;4843477;29;20359;-70
2023/01/01 03:23:12;;;;;;;20.05;11.93;;;13.00;99.90;;;;;;4841732;29;20501;-71
2023/01/01 03:25:49;;;;;;;23.52;12.30;;;12.90;99.90;;;;;;4872827;29;20041;-72
2023/01/01 03:28:38;;;;;;;22.38;13.07;;;12.90;99.90;;;;;;4842760;29;20175;-71
2023/01/01 03:31:04;;;;;;;21.63;11.80;;;12.80;99.90;;;;;;4856297;29;20058;-71
2023/01/01 03:33:42;;;;;;;25.83;13.57;;;12.80;99.90;;;;;;4839306;29;20594;-72
2023/01/01 03:36:26;;;;;;;21.90;13.25;;;12.80;99.90;;;;;;4848691;29;20410;-72
2023/01/01 03:38:56;;;;;;;23.90;12.80;;;12.80;99.90;;;;;;4857605;29;20057;-72
2023/01/01 03:41:33;;;;;;;24.25;11.68;;;14.00;99.90;;;;;;4857533;29;20053;-72
2023/01/01 03:44:04;;;;;;;21.38;11.35;;;12.20;99.90;;;;;;4859414;29;20456;-72
2023/01/01 03:46:33;;;;;;;17.40;9.98;;;11.40;99.90;;;;;;4858184;29;20169;-72
2023/01/01 03:49:00;;;;;;;19.52;10.02;;;12.40;99.90;;;;;;4858095;29;20087;-72
2023/01/01 03:51:44;;;;;;;18.52;9.52;;;10.90;99.90;;;;;;4857199;29;20062;-72
2023/01/01 03:54:39;;;;;;;19.02;9.70;;;11.60;99.90;;;;;;4855101;29;20049;-72
2023/01/01 03:57:38;;;;;;;16.70;8.60;;;14.00;99.90;;;;;;4857803;29;20128;-73
2023/01/01 04:00:09;;;;;;;14.40;8.43;;;12.40;99.90;;;;;;4816759;29;20094;-72
2023/01/01 04:02:56;;;;;;;14.30;7.60;;;15.80;99.90;;;;;;4859424;29;20126;-73
2023/01/01 04:05:23;;;;;;;15.43;7.47;;;13.80;99.90;;;;;;4856455;29;20188;-73
2023/01/01 04:07:50;;;;;;;10.75;6.30;;;12.30;99.90;;;;;;4839634;29;20112;-72
2023/01/01 04:10:16;;;;;;;12.93;6.13;;;16.30;99.90;;;;;;4835854;29;20057;-73
2023/01/01 04:12:51;;;;;;;9.80;5.60;;;16.10;99.90;;;;;;4843395;29;20038;-72
2023/01/01 04:15:19;;;;;;;13.10;5.30;;;16.00;99.90;;;;;;4858449;29;20077;-72
2023/01/01 04:17:45;;;;;;;8.80;4.88;;;13.00;99.90;;;;;;4858110;29;20081;-72
2023/01/01 04:20:11;;;;;;;11.68;4.82;;;15.00;99.90;;;;;;4858607;29;20053;-78
2023/01/01 04:22:37;;;;;;;14.98;5.03;;;14.30;99.90;;;;;;4859550;29;20137;-78
2023/01/01 04:25:04;;;;;;;11.20;4.20;;;12.80;99.90;;;;;;4858343;29;20041;-77
2023/01/01 04:27:30;;;;;;;8.52;3.30;;;15.40;99.90;;;;;;4858936;29;20383;-78
2023/01/01 04:29:55;;;;;;;12.50;3.80;;;14.70;99.90;;;;;;4856818;29;20064;-78
2023/01/01 04:32:21;;;;;;;12.88;3.60;;;14.90;99.90;;;;;;4859657;29;20041;-77
2023/01/01 04:34:47;;;;;;;11.50;3.47;;;14.40;99.90;;;;;;4839796;29;20182;-78
2023/01/01 04:37:13;;;;;;;13.10;3.92;;;14.20;99.90;;;;;;4842744;29;20050;-78
2023/01/01 04:39:39;;;;;;;11.55;4.00;;;14.50;99.90;;;;;;4856937;29;20523;-78
2023/01/01 04:42:05;;;;;;;13.80;3.92;;;14.60;99.90;;;;;;4830006;29;20097;-78
2023/01/01 04:44:30;;;;;;;12.60;4.32;;;14.30;99.90;;;;;;4844681;29;20053;-76
2023/01/01 04:46:56;;;;;;;13.50;3.97;;;14.00;99.90;;;;;;4858919;29;20568;-78
2023/01/01 04:49:22;;;;;;;16.20;4.30;;;14.50;99.90;;;;;;4830710;29;20525;-78
2023/01/01 04:51:48;;;;;;;18.20;4.45;;;13.90;99.90;;;;;;4858117;29;20061;-71
2023/01/01 04:54:14;;;;;;;14.70;4.30;;;14.30;99.90;;;;;;4857779;29;20057;-71
2023/01/01 04:56:40;;;;;;;15.73;4.95;;;14.20;99.90;;;;;;4858310;29;20171;-71
2023/01/01 04:59:06;;;;;;;16.92;4.88;;;13.80;99.90;;;;;;4857474;29;20041;-71
2023/01/01 05:01:31;;;;;;;12.43;4.78;;;13.80;99.90;;;;;;4842017;29;20045;-71
2023/01/01 05:03:58;;;;;;;11.73;4.95;;;13.90;99.90;;;;;;4857921;29;20045;-72
2023/01/01 05:06:25;;;;;;;14.65;5.22;;;13.90;99.90;;;;;;4839543;29;20049;-77
2023/01/01 05:08:56;;;;;;;13.85;4.38;;;13.80;99.90;;;;;;4856665;29;20053;-78
2023/01/01 05:11:24;;;;;;;12.35;4.30;;;13.50;99.90;;;;;;4852990;29;20494;-78
2023/01/01 05:13:52;;;;;;;9.63;3.50;;;13.70;99.90;;;;;;4859229;29;20081;-78
2023/01/01 05:16:20;;;;;;;14.00;3.28;;;13.50;99.90;;;;;;4850344;29;20045;-78
2023/01/01 05:18:47;;;;;;;10.65;3.72;;;13.40;99.90;;;;;;4843393;29;20427;-77
2023/01/01 05:21:22;;;;;;;8.43;3.20;;;13.40;99.90;;;;;;4856398;29;20525;-78
2023/01/01 05:23:48;;;;;;;12.80;3.47;;;13.20;99.90;;;;;;4859266;29;20052;-77
2023/01/01 05:26:19;;;;;;;9.40;3.25;;;13.20;99.90;;;;;;4857954;29;20290;-77
2023/01/01 05:28:46;;;;;;;12.35;2.90;;;13.10;99.90;;;;;;4858132;29;20080;-77
2023/01/01 05:31:15;;;;;;;7.20;2.22;;;13.00;99.90;;;;;;4856819;29;20045;-77
2023/01/01 05:33:41;;;;;;;7.85;2.50;;;13.10;99.90;;;;;;4859023;29;20064;-78
2023/01/01 05:36:18;;;;;;;7.05;2.60;;;13.00;99.90;;;;;;4856415;29;20140;-77
2023/01/01 05:38:44;;;;;;;13.10;2.90;;;12.90;99.90;;;;;;4841917;29;20057;-77
2023/01/01 05:41:13;;;;;;;12.38;2.83;;;12.80;99.90;;;;;;4855897;29;20046;-77
2023/01/01 05:43:39;;;;;;;8.43;2.25;;;12.80;99.90;;;;;;4858933;29;20050;-76
2023/01/01 05:46:10;;;;;;;10.40;2.40;;;12.80;99.90;;;;;;4855489;29;20046;-77
2023/01/01 05:48:37;;;;;;;8.48;2.20;;;12.70;99.90;;;;;;4856610;29;20069;-77
2023/01/01 05:51:08;;;;;;;9.80;2.35;;;12.70;99.90;;;;;;4857059;29;20557;-77
2023/01/01 05:53:34;;;;;;;7.35;2.55;;;12.70;99.90;;;;;;4855958;29;20068;-77
2023/01/01 05:56:00;;;;;;;7.93;2.53;;;12.70;99.90;;;;;;4840008;29;20468;-77
2023/01/01 05:58:27;;;;;;;9.18;2.42;;;12.60;99.90;;;;;;4851818;29;20053;-78
2023/01/01 06:00:54;;;;;;;7.32;2.00;;;12.60;99.90;;;;;;4858642;29;20116;-77
2023/01/01 06:03:20;;;;;;;9.50;2.38;;;12.50;99.90;;;;;;4856771;29;20052;-78
2023/01/01 06:05:45;;;;;;;5.10;1.90;;;12.50;99.90;;;;;;4857388;29;20056;-70
2023/01/01 06:08:11;;;;;;;8.85;1.95;;;12.40;99.90;;;;;;4854595;29;20425;-71
2023/01/01 06:10:37;;;;;;;6.95;1.70;;;12.30;99.90;;;;;;4840227;29;20045;-70
2023/01/01 06:13:03;;;;;;;8.38;1.67;;;12.30;99.90;;;;;;4857166;29;20056;-72
2023/01/01 06:15:29;;;;;;;6.68;1.73;;;12.30;99.90;;;;;;4856070;29;20529;-70
2023/01/01 06:17:56;;;;;;;6.47;1.70;;;12.30;99.90;;;;;;4854248;29;20041;-70
2023/01/01 06:20:22;;;;;;;7.50;1.60;;;12.20;99.90;;;;;;4854180;29;20049;-70
2023/01/01 06:22:47;;;;;;;7.10;1.85;;;12.10;99.90;;;;;;4844104;29;20395;-70
2023/01/01 06:25:13;;;;;;;7.38;1.60;;;12.10;99.90;;;;;;4829505;29;20038;-70
2023/01/01 06:27:41;;;;;;;5.45;1.38;;;12.10;99.90;;;;;;4858756;29;20101;-70
2023/01/01 06:30:08;;;;;;;6.63;1.48;;;12.00;99.90;;;;;;4859652;29;20096;-70
2023/01/01 06:32:33;;;;;;;;;;;12.00;99.90;;;;;;4859076;29;20056;-70
2023/01/01 06:34:59;;;;;;;6.97;1.65;;;12.00;99.90;;;;;;4859829;29;20372;-69
2023/01/01 06:37:26;;;;;;;5.85;1.30;;;12.00;99.90;;;;;;4858986;29;20045;-71
2023/01/01 06:39:52;;;;;;;9.73;1.75;;;11.90;99.90;;;;;;4860023;29;20061;-70
2023/01/01 06:42:21;;;;;;;8.60;1.85;;;11.90;99.90;;;;;;4826061;29;20441;-71
2023/01/01 06:44:46;;;;;;;6.28;1.42;;;12.00;99.90;;;;;;4827760;29;20625;-70
2023/01/01 06:47:12;;;;;;;9.57;1.83;;;11.90;99.90;;;;;;4855075;29;20114;-71
2023/01/01 06:49:38;;;;;;;9.02;1.60;;;11.80;99.90;;;;;;4859691;29;20045;-71
2023/01/01 06:52:06;;;;;;;7.65;1.50;;;11.90;99.90;;;;;;4828683;29;20472;-70
2023/01/01 06:54:32;;;;;;;7.10;1.55;;;11.90;99.90;;;;;;4842648;29;20118;-76
2023/01/01 06:56:58;;;;;;;11.85;1.67;;;11.80;99.90;;;;;;4857263;29;20057;-76
2023/01/01 06:59:23;;;;;;;9.63;1.73;;;11.80;99.90;;;;;;4859810;29;20105;-78
2023/01/01 07:01:49;;;;;;;9.20;1.80;;;11.80;99.90;;;;;;4840954;29;20197;-71
2023/01/01 07:04:15;;;;;;;10.95;1.65;;;11.80;99.90;;;;;;4859940;29;20045;-70
2023/01/01 07:06:41;;;;;;;9.10;1.65;;;11.80;99.90;;;;;;4834808;29;20034;-70
2023/01/01 07:09:08;;;;;;;14.30;1.90;;;11.70;99.90;;;;;;4857488;29;20924;-71
2023/01/01 07:11:34;;;;;;;8.00;1.83;;;11.70;99.90;;;;;;4838103;29;20175;-70
2023/01/01 07:14:00;;;;;;;11.30;2.20;;;11.70;99.90;;;;;;4858143;29;20057;-78
2023/01/01 07:16:26;;;;;;;12.00;2.33;;;11.80;99.90;;;;;;4844230;29;20049;-76
2023/01/01 07:18:52;;;;;;;11.35;1.83;;;11.80;99.90;;;;;;4859151;29;20057;-71
2023/01/01 07:21:37;;;;;;;11.40;1.95;;;11.70;99.90;;;;;;4858307;29;20530;-71
2023/01/01 07:24:04;;;;;;;13.55;2.90;;;11.70;99.90;;;;;;4859984;29;20070;-71
2023/01/01 07:26:31;;;;;;;10.85;2.35;;;11.70;99.90;;;;;;4859273;29;20110;-72
2023/01/01 07:28:57;;;;;;;10.15;1.85;;;11.70;99.90;;;;;;4859863;29;20081;-71
2023/01/01 07:31:23;;;;;;;11.50;2.00;;;11.60;99.90;;;;;;4853972;29;20490;-70
2023/01/01 07:33:49;;;;;;;13.10;2.35;;;11.60;99.90;;;;;;4845645;29;20064;-71
2023/01/01 07:36:15;;;;;;;13.02;2.83;;;11.60;99.90;;;;;;4854435;29;20069;-71
2023/01/01 07:38:41;;;;;;;12.35;2.47;;;11.50;99.90;;;;;;4860109;29;20059;-71
2023/01/01 07:41:06;;;;;;;12.63;2.65;;;11.60;99.90;;;;;;4855316;29;21251;-71
2023/01/01 07:43:32;;;;;;;11.88;2.38;;;11.50;99.90;;;;;;4850032;29;20494;-71
2023/01/01 07:45:59;;;;;;;14.68;2.78;;;11.50;99.90;;;;;;4850276;29;20517;-71
2023/01/01 07:48:25;;;;;;;13.57;2.22;;;11.50;99.90;;;;;;4837020;29;20510;-71
2023/01/01 07:50:51;;;;;;;16.55;2.63;;;11.60;99.90;;;;;;4852669;29;20057;-71
2023/01/01 07:53:16;;;;;;;16.63;2.72;;;11.50;99.90;;;;;;4848369;29;20830;-71
2023/01/01 07:55:44;;;;;;;13.68;2.42;;;11.50;99.90;;;;;;4855755;29;20101;-70
2023/01/01 07:58:11;;;;;;;15.13;2.58;;;11.50;99.90;;;;;;4856628;29;20566;-71
2023/01/01 08:00:37;;;;;;;13.65;2.65;;;11.50;99.90;;;;;;4857966;29;20393;-70
2023/01/01 08:03:03;;;;;;;11.60;2.70;;;11.50;99.90;;;;;;4857728;29;20758;-70
2023/01/01 08:05:29;;;;;;;13.85;3.15;;;11.50;99.90;;;;;;4857699;29;20038;-70
2023/01/01 08:07:55;;;;;;;13.38;2.63;;;11.50;99.90;;;;;;4858815;29;20467;-71
2023/01/01 08:10:21;;;;;;;18.15;3.40;;;11.50;99.90;;;;;;4859790;29;20052;-71
2023/01/01 08:12:47;;;;;;;13.90;2.58;;;11.50;99.90;;;;;;4856692;29;20528;-71
2023/01/01 08:15:13;;;;;;;16.30;2.95;;;11.50;99.90;;;;;;4859175;29;20041;-71
2023/01/01 08:17:39;;;;;;;11.73;2.13;;;11.50;99.90;;;;;;4856979;29;20045;-70
2023/01/01 08:20:06;;;;;;;20.60;2.90;;;11.50;99.90;;;;;;4856632;29;20057;-70
2023/01/01 08:22:32;;;;;;;15.48;2.63;;;11.50;99.90;;;;;;4856434;29;20060;-71
2023/01/01 08:24:58;;;;;;;16.80;2.97;;;11.50;99.90;;;;;;4826924;29;20502;-71
2023/01/01 08:27:24;;;;;;;16.60;3.05;;;11.40;99.90;;;;;;4832381;29;20048;-70
2023/01/01 08:29:49;;;;;;;18.92;3.55;;;11.40;99.90;;;;;;4843213;29;20033;-72
2023/01/01 08:32:15;;;;;;;18.60;3.28;;;11.50;99.90;;;;;;4855316;29;20490;-71
2023/01/01 08:34:41;;;;;;;13.45;2.50;;;11.40;99.90;;;;;;4855944;29;20042;-71
2023/01/01 08:37:11;;;;;;;16.25;2.53;;;11.50;99.90;;;;;;4854335;29;20083;-71
2023/01/01 08:39:37;;;;;;;14.32;3.15;;;11.40;99.90;;;;;;4830675;29;20050;-70
2023/01/01 08:42:03;;;;;;;17.15;2.78;;;11.40;99.90;;;;;;4853107;29;20060;-70
2023/01/01 08:44:29;;;;;;;12.93;3.05;;;11.50;99.90;;;;;;4853095;29;20049;-70
2023/01/01 08:46:54;;;;;;;18.25;3.30;;;11.50;99.90;;;;;;4857252;29;20049;-70
2023/01/01 08:49:20;;;;;;;17.60;2.97;;;11.50;99.90;;;;;;4856882;29;20067;-71
2023/01/01 08:51:46;;;;;;;13.38;2.70;;;11.40;99.90;;;;;;4857359;29;20502;-71
2023/01/01 08:54:12;;;;;;;13.10;2.67;;;11.50;99.90;;;;;;4839489;29;20061;-71
2023/01/01 08:56:37;;;;;;;20.88;3.83;;;11.50;99.90;;;;;;4857827;29;20081;-71
2023/01/01 08:59:03;;;;;;;13.38;2.72;;;11.50;99.90;;;;;;4855425;29;20508;-72
2023/01/01 09:01:29;;;;;;;11.38;2.38;;;11.50;99.90;;;;;;4856412;29;20045;-70
2023/01/01 09:03:54;;;;;;;15.60;3.47;;;11.50;99.90;;;;;;4836775;29;20045;-71
2023/01/01 09:06:20;;;;;;;15.27;2.40;;;11.50;99.90;;;;;;4855073;29;20091;-72
2023/01/01 09:08:46;;;;;;;14.35;2.85;;;11.50;99.90;;;;;;4840406;29;20117;-71
2023/01/01 09:11:27;;;;;;;16.35;3.30;;;11.60;99.90;;;;;;4841294;29;20087;-70
2023/01/01 09:13:54;;;;;;;17.83;3.67;;;11.50;99.90;;;;;;4856005;29;20049;-77
2023/01/01 09:16:20;;;;;;;;;;;11.60;99.90;;;;;;4834445;29;20081;-76
2023/01/01 09:18:45;;;;;;;14.68;3.30;;;11.50;99.90;;;;;;4854971;29;19928;-76
2023/01/01 09:21:11;;;;;;;16.45;3.03;;;11.60;99.90;;;;;;4858019;29;20046;-77
2023/01/01 09:23:37;;;;;;;21.38;3.53;;;11.60;99.90;;;;;;4856422;29;20089;-76
2023/01/01 09:26:08;;;;;;;14.70;2.92;;;11.60;99.90;;;;;;4856932;29;20054;-75
2023/01/01 09:28:35;;;;;;;12.48;2.75;;;11.60;99.90;;;;;;4858111;29;20045;-76
2023/01/01 09:31:03;;;;;;;16.90;3.55;;;11.60;99.90;;;;;;4828973;29;20045;-76
2023/01/01 09:33:29;;;;;;;15.77;3.08;;;11.60;99.90;;;;;;4853367;29;20045;-77
2023/01/01 09:36:14;;;;;;;17.30;3.53;;;11.60;99.90;;;;;;4855562;29;20043;-77
2023/01/01 09:38:39;;;;;;;15.82;3.33;;;11.60;99.90;;;;;;4856879;29;20045;-76
2023/01/01 09:41:14;;;;;;;18.50;3.17;;;11.70;99.90;;;;;;4851533;29;20516;-75
2023/01/01 09:43:59;;;;;;;16.23;2.92;;;11.60;99.90;;;;;;4851504;29;20469;-70
2023/01/01 09:46:25;;;;;;;15.18;2.85;;;11.60;99.90;;;;;;4864879;29;20052;-69
2023/01/01 09:48:58;;;;;;;12.43;2.63;;;11.60;99.90;;;;;;4848366;29;20362;-70
2023/01/01 09:51:29;;;;;;;15.88;3.38;;;11.70;99.90;;;;;;4853820;29;20061;-76
2023/01/01 09:54:14;;;;;;;14.57;2.97;;;11.70;99.90;;;;;;4851921;29;20067;-76
2023/01/01 09:56:41;;;;;;;16.33;3.42;;;11.70;99.90;;;;;;4856539;29;20132;-76
2023/01/01 09:59:11;;;;;;;15.95;2.78;;;11.70;99.90;;;;;;4835876;29;20478;-76
2023/01/01 10:01:51;;;;;;;25.33;3.50;;;11.70;99.90;;;;;;4857430;29;20050;-76
2023/01/01 10:04:39;;;;;;;13.73;2.80;;;11.70;99.90;;;;;;4841764;29;20053;-76
2023/01/01 10:07:28;;;;;;;24.35;3.60;;;11.80;99.90;;;;;;4845917;29;20256;-76
2023/01/01 10:10:30;;;;;;;20.85;2.97;;;11.80;99.90;;;;;;4852092;29;20126;-76
2023/01/01 10:13:15;;;;;;;16.00;2.80;;;11.80;99.90;;;;;;4855941;29;20052;-77
2023/01/01 10:15:57;;;;;;;19.70;3.30;;;11.80;99.90;;;;;;4840764;29;20064;-76
2023/01/01 10:18:28;;;;;;;20.20;3.42;;;11.80;99.90;;;;;;4856166;29;20045;-76
2023/01/01 10:21:12;;;;;;;18.05;2.85;;;11.80;99.90;;;;;;4856997;29;20163;-76
2023/01/01 10:23:43;;;;;;;17.40;3.53;;;11.90;99.90;;;;;;4854114;29;20597;-77
2023/01/01 10:26:15;;;;;;;19.95;3.30;;;11.90;99.90;;;;;;4856113;29;20080;-71
2023/01/01 10:29:00;;;;;;;15.82;2.78;;;11.90;99.90;;;;;;4852680;29;20068;-70
2023/01/01 10:31:35;;;;;;;15.65;2.78;;;11.90;99.90;;;;;;4852041;29;20134;-71
2023/01/01 10:34:14;;;;;;;16.80;3.13;;;11.90;99.90;;;;;;4852151;29;20136;-72
2023/01/01 10:36:40;;;;;;;15.65;2.97;;;11.90;99.90;;;;;;4857259;29;20078;-71
2023/01/01 10:39:08;;;;;;;13.82;2.50;;;11.80;99.90;;;;;;4855163;29;20053;-71
2023/01/01 10:41:33;;;;;;;18.33;2.90;;;11.80;99.90;;;;;;4857007;29;20052;-70
2023/01/01 10:43:59;;;;;;;16.65;2.92;;;11.80;99.90;;;;;;4845836;29;20050;-71
2023/01/01 10:46:25;;;;;;;13.07;2.22;;;11.80;99.90;;;;;;4845639;29;20056;-72
2023/01/01 10:49:05;;;;;;;;;;;11.80;99.90;;;;;;4828860;29;20046;-72
2023/01/01 10:51:31;;;;;;;12.10;2.53;;;11.70;99.90;;;;;;4851938;29;20038;-71
2023/01/01 10:53:57;;;;;;;16.92;2.72;;;11.70;99.90;;;;;;4846762;29;20066;-71
2023/01/01 10:56:23;;;;;;;11.65;2.58;;;11.80;99.90;;;;;;4844683;29;20049;-71
2023/01/01 10:58:54;;;;;;;13.40;2.78;;;11.70;99.90;;;;;;4841369;29;20153;-71
2023/01/01 11:01:28;;;;;;;11.90;2.75;;;11.90;99.90;;;;;;4840735;29;20077;-70
2023/01/01 11:04:16;;;;;;;16.27;2.72;;;11.90;99.90;;;;;;4841870;29;20054;-71
2023/01/01 11:06:46;;;;;;;11.43;2.33;;;11.90;99.90;;;;;;4846502;29;20506;-71
2023/01/01 11:09:27;;;;;;;11.48;2.35;;;11.90;99.90;;;;;;4844477;29;20053;-71
2023/01/01 11:12:01;;;;;;;10.88;2.05;;;11.90;99.90;;;;;;4850636;29;20045;-71
2023/01/01 11:14:35;;;;;;;13.32;2.40;;;11.90;99.90;;;;;;4849723;29;20042;-71
2023/01/01 11:17:01;;;;;;;15.25;2.55;;;12.00;99.90;;;;;;4855821;29;20053;-72
2023/01/01 11:19:31;;;;;;;9.93;2.70;;;12.00;99.90;;;;;;4842610;29;20102;-71
2023/01/01 11:21:57;;;;;;;14.07;2.97;;;12.00;99.90;;;;;;4844887;29;20406;-70
2023/01/01 11:24:26;;;;;;;15.70;2.35;;;12.10;99.90;;;;;;4849252;29;20045;-70
2023/01/01 11:26:53;;;;;;;15.35;2.58;;;12.10;99.90;;;;;;4848207;29;20447;-70
2023/01/01 11:29:27;;;;;;;14.30;2.33;;;12.10;99.90;;;;;;4844191;29;20490;-71
2023/01/01 11:31:55;;;;;;;14.60;2.38;;;12.00;99.90;;;;;;4849775;29;20054;-70
2023/01/01 11:34:35;;;;;;;10.25;1.70;;;12.00;99.90;;;;;;4850339;29;20504;-77
2023/01/01 11:37:19;;;;;;;10.18;2.20;;;12.00;99.90;;;;;;4858196;29;20049;-77
2023/01/01 11:39:49;;;;;;;12.15;2.08;;;11.90;99.90;;;;;;4860988;29;20083;-77
2023/01/01 11:42:22;;;;;;;11.25;2.13;;;12.00;99.90;;;;;;4859929;29;20132;-77
2023/01/01 11:44:53;;;;;;;14.30;2.30;;;12.00;99.90;;;;;;4842212;29;20383;-78
2023/01/01 11:47:28;;;;;;;13.57;2.53;;;11.90;99.90;;;;;;4861242;29;20112;-79
2023/01/01 11:50:13;;;;;;;14.55;2.53;;;11.90;99.90;;;;;;4858054;29;20045;-78
2023/01/01 11:52:45;;;;;;;12.50;2.30;;;11.90;99.90;;;;;;4846634;29;20402;-81
2023/01/01 11:55:32;;;;;;;15.00;2.40;;;11.90;99.90;;;;;;4859239;29;20049;-80
2023/01/01 11:58:13;;;;;;;11.07;2.28;;;12.00;99.90;;;;;;4854954;29;20042;-79
2023/01/01 12:00:39;;;;;;;12.63;1.83;;;12.00;99.90;;;;;;4858960;29;20053;-79
2023/01/01 12:03:16;;;;;;;16.27;2.65;;;12.00;99.90;;;;;;4856696;29;20055;-78
2023/01/01 12:06:35;;;;;;;12.27;2.15;;;12.10;99.90;;;;;;4851822;29;20057;-71
2023/01/01 12:09:22;;;;;;;13.05;2.25;;;12.10;99.90;;;;;;4815380;29;20052;-71
2023/01/01 12:12:22;;;;;;;13.65;2.40;;;12.20;99.90;;;;;;4858432;29;20045;-71
2023/01/01 12:15:03;;;;;;;11.55;2.15;;;12.30;99.90;;;;;;4842064;29;20137;-71
2023/01/01 12:18:14;;;;;;;9.10;2.50;;;12.30;99.90;;;;;;4857766;29;20061;-71
2023/01/01 12:20:48;;;;;;;12.02;2.28;;;12.30;99.90;;;;;;4790968;29;20777;-71
2023/01/01 12:23:17;;;;;;;12.95;2.42;;;12.30;99.90;;;;;;4853669;29;20054;-71
2023/01/01 12:25:50;;;;;;;11.43;2.53;;;12.20;99.90;;;;;;4855826;29;20110;-70
2023/01/01 12:28:32;;;;;;;15.95;2.70;;;12.20;99.90;;;;;;4837198;29;20057;-71
2023/01/01 12:31:20;;;;;;;11.48;2.42;;;12.20;99.90;;;;;;4837054;29;20053;-70
2023/01/01 12:33:58;;;;;;;11.50;2.40;;;12.20;99.90;;;;;;4825727;29;20084;-78
2023/01/01 12:36:40;;;;;;;14.98;2.78;;;12.20;99.90;;;;;;4854028;29;20128;-78
2023/01/01 12:39:43;;;;;;;9.57;1.80;;;12.20;99.90;;;;;;4858581;29;20049;-78
2023/01/01 12:42:27;;;;;;;12.93;2.67;;;12.40;99.90;;;;;;4858502;29;20049;-78
2023/01/01 12:45:29;;;;;;;15.00;2.70;;;12.50;99.90;;;;;;4858827;29;20155;-78
2023/01/01 12:48:13;;;;;;;11.75;2.40;;;12.50;99.90;;;;;;4858558;29;20422;-78
2023/01/01 12:51:01;;;;;;;11.05;2.20;;;12.40;99.90;;;;;;4859241;29;20061;-79
2023/01/01 12:53:45;;;;;;;12.68;2.58;;;12.40;99.90;;;;;;4866437;29;20060;-79
2023/01/01 12:56:30;;;;;;;10.07;2.05;;;12.40;99.90;;;;;;4868863;29;20078;-72
2023/01/01 12:59:08;;;;;;;10.82;2.30;;;12.40;99.90;;;;;;4860531;29;20401;-72
2023/01/01 13:01:41;;;;;;;11.05;2.35;;;12.40;99.90;;;;;;4842276;29;20152;-71